sensor_id;sensor_type;location;lat;lon;timestamp;pressure;altitude;pressure_sealevel;temperature;humidity
10840;BME280;5473;42.706;23.328;2023-03-03T00:01:13;-12056.34;;;-142.93;100.00
10840;BME280;5473;42.706;23.328;2023-03-03T00:03:40;-12056.34;;;-142.93;100.00
10840;BME280;5473;42.706;23.328;2023-03-03T00:06:10;-12056.34;;;-142.93;100.00
10840;BME280;5473;42.706;23.328;2023-03-03T00:08:38;-12056.34;;;-142.93;100.00
10840;BME280;5473;42.706;23.328;2023-03-03T00:11:05;-12056.34;;;-142.93;100.00
10840;BME280;5473;42.706;23.328;2023-03-03T00:13:40;-12056.34;;;-142.93;100.00
10840;BME280;5473;42.706;23.328;2023-03-03T00:16:13;-11805.41;;;-142.93;100.00
10840;BME280;5473;42.706;23.328;2023-03-03T00:18:44;-12056.34;;;-142.93;100.00
10840;BME280;5473;42.706;23.328;2023-03-03T00:21:22;-12056.34;;;-142.93;100.00
10840;BME280;5473;42.706;23.328;2023-03-03T00:23:51;-12056.34;;;-142.93;100.00
10840;BME280;5473;42.706;23.328;2023-03-03T00:26:21;-12056.34;;;-142.93;100.00
10840;BME280;5473;42.706;23.328;2023-03-03T00:28:50;-12056.34;;;-142.93;100.00
10840;BME280;5473;42.706;23.328;2023-03-03T00:31:19;-12056.34;;;-142.93;100.00
10840;BME280;5473;42.706;23.328;2023-03-03T00:33:48;-12056.34;;;-142.93;100.00
10840;BME280;5473;42.706;23.328;2023-03-03T00:36:28;-12056.34;;;-142.93;100.00
10840;BME280;5473;42.706;23.328;2023-03-03T00:39:09;-12307.22;;;-142.93;100.00
10840;BME280;5473;42.706;23.328;2023-03-03T00:41:38;-12558.09;;;-142.93;100.00
10840;BME280;5473;42.706;23.328;2023-03-03T00:44:39;-12558.09;;;-142.93;100.00
10840;BME280;5473;42.706;23.328;2023-03-03T00:47:23;-12558.09;;;-142.93;100.00
10840;BME280;5473;42.706;23.328;2023-03-03T00:49:50;-12808.97;;;-142.93;100.00
10840;BME280;5473;42.706;23.328;2023-03-03T00:52:19;-12808.97;;;-142.93;100.00
10840;BME280;5473;42.706;23.328;2023-03-03T00:54:46;-12808.97;;;-142.93;100.00
10840;BME280;5473;42.706;23.328;2023-03-03T00:57:13;-12808.97;;;-142.93;100.00
10840;BME280;5473;42.706;23.328;2023-03-03T00:59:40;-12808.97;;;-142.93;100.00
10840;BME280;5473;42.706;23.328;2023-03-03T01:02:07;-12808.97;;;-142.93;100.00
10840;BME280;5473;42.706;23.328;2023-03-03T01:04:33;-12808.97;;;-142.93;100.00
10840;BME280;5473;42.706;23.328;2023-03-03T01:07:00;-12808.97;;;-142.93;100.00
10840;BME280;5473;42.706;23.328;2023-03-03T01:09:28;-12808.97;;;-142.93;100.00
10840;BME280;5473;42.706;23.328;2023-03-03T01:11:55;-12808.97;;;-142.93;100.00
10840;BME280;5473;42.706;23.328;2023-03-03T01:14:22;-12808.97;;;-142.93;100.00
10840;BME280;5473;42.706;23.328;2023-03-03T01:16:49;-12808.97;;;-142.93;100.00
10840;BME280;5473;42.706;23.328;2023-03-03T01:19:16;-12808.97;;;-142.93;100.00
10840;BME280;5473;42.706;23.328;2023-03-03T01:21:42;-12808.97;;;-142.93;100.00
10840;BME280;5473;42.706;23.328;2023-03-03T01:24:09;-13059.81;;;-142.93;100.00
10840;BME280;5473;42.706;23.328;2023-03-03T01:26:37;-13059.81;;;-142.93;100.00
10840;BME280;5473;42.706;23.328;2023-03-03T01:29:04;-13059.81;;;-142.93;100.00
10840;BME280;5473;42.706;23.328;2023-03-03T01:31:31;-13059.81;;;-142.93;100.00
10840;BME280;5473;42.706;23.328;2023-03-03T01:33:57;-13059.81;;;-142.93;100.00
10840;BME280;5473;42.706;23.328;2023-03-03T01:36:25;-13059.81;;;-142.93;100.00
10840;BME280;5473;42.706;23.328;2023-03-03T01:38:52;-13059.81;;;-142.93;100.00
10840;BME280;5473;42.706;23.328;2023-03-03T01:41:19;-13059.81;;;-142.93;100.00
10840;BME280;5473;42.706;23.328;2023-03-03T01:43:49;-13059.81;;;-142.93;100.00
10840;BME280;5473;42.706;23.328;2023-03-03T01:49:25;-12808.97;;;-142.93;100.00
10840;BME280;5473;42.706;23.328;2023-03-03T01:51:57;-12808.97;;;-142.93;100.00
10840;BME280;5473;42.706;23.328;2023-03-03T01:54:29;-12808.97;;;-142.93;100.00
10840;BME280;5473;42.706;23.328;2023-03-03T01:57:02;-12808.97;;;-142.93;100.00
10840;BME280;5473;42.706;23.328;2023-03-03T01:59:33;-12808.97;;;-142.93;100.00
10840;BME280;5473;42.706;23.328;2023-03-03T02:02:02;-12808.97;;;-142.93;100.00
10840;BME280;5473;42.706;23.328;2023-03-03T02:04:29;-12808.97;;;-142.93;100.00
10840;BME280;5473;42.706;23.328;2023-03-03T02:06:59;-13059.81;;;-142.93;100.00
10840;BME280;5473;42.706;23.328;2023-03-03T02:09:33;-13059.81;;;-142.93;100.00
10840;BME280;5473;42.706;23.328;2023-03-03T02:12:06;-13059.81;;;-142.93;100.00
10840;BME280;5473;42.706;23.328;2023-03-03T02:14:35;-13059.81;;;-142.93;100.00
10840;BME280;5473;42.706;23.328;2023-03-03T02:17:01;-13059.81;;;-142.93;100.00
10840;BME280;5473;42.706;23.328;2023-03-03T02:19:34;-12808.97;;;-142.93;100.00
10840;BME280;5473;42.706;23.328;2023-03-03T02:22:02;-12808.97;;;-142.93;100.00
10840;BME280;5473;42.706;23.328;2023-03-03T02:24:32;-12808.97;;;-142.93;100.00
10840;BME280;5473;42.706;23.328;2023-03-03T02:27:04;-12808.97;;;-142.93;100.00
10840;BME280;5473;42.706;23.328;2023-03-03T02:29:31;-12808.97;;;-142.93;100.00
10840;BME280;5473;42.706;23.328;2023-03-03T02:31:58;-12808.97;;;-142.93;100.00
10840;BME280;5473;42.706;23.328;2023-03-03T02:34:25;-12808.97;;;-142.93;100.00
10840;BME280;5473;42.706;23.328;2023-03-03T02:36:52;-12808.97;;;-142.93;100.00
10840;BME280;5473;42.706;23.328;2023-03-03T02:39:20;-12808.97;;;-142.93;100.00
10840;BME280;5473;42.706;23.328;2023-03-03T02:41:49;-12808.97;;;-142.93;100.00
10840;BME280;5473;42.706;23.328;2023-03-03T02:44:21;-12808.97;;;-142.93;100.00
10840;BME280;5473;42.706;23.328;2023-03-03T02:46:50;-12808.97;;;-142.93;100.00
10840;BME280;5473;42.706;23.328;2023-03-03T02:49:18;-12808.97;;;-142.93;100.00
10840;BME280;5473;42.706;23.328;2023-03-03T02:51:46;-12808.97;;;-142.93;100.00
10840;BME280;5473;42.706;23.328;2023-03-03T02:54:15;-12808.97;;;-142.93;100.00
10840;BME280;5473;42.706;23.328;2023-03-03T02:56:42;-12808.97;;;-142.93;100.00
10840;BME280;5473;42.706;23.328;2023-03-03T02:59:10;-12808.97;;;-142.93;100.00
10840;BME280;5473;42.706;23.328;2023-03-03T03:01:39;-12808.97;;;-142.93;100.00
10840;BME280;5473;42.706;23.328;2023-03-03T03:04:07;-12808.97;;;-142.93;100.00
10840;BME280;5473;42.706;23.328;2023-03-03T03:06:35;-12808.97;;;-142.93;100.00
10840;BME280;5473;42.706;23.328;2023-03-03T03:09:03;-12808.97;;;-142.93;100.00
10840;BME280;5473;42.706;23.328;2023-03-03T03:11:29;-12808.97;;;-142.93;100.00
10840;BME280;5473;42.706;23.328;2023-03-03T03:13:56;-12808.97;;;-142.93;100.00
10840;BME280;5473;42.706;23.328;2023-03-03T03:16:23;-12808.97;;;-142.93;100.00
10840;BME280;5473;42.706;23.328;2023-03-03T03:18:51;-12808.97;;;-142.93;100.00
10840;BME280;5473;42.706;23.328;2023-03-03T03:21:18;-12808.97;;;-142.93;100.00
10840;BME280;5473;42.706;23.328;2023-03-03T03:23:45;-12808.97;;;-142.93;100.00
10840;BME280;5473;42.706;23.328;2023-03-03T03:26:12;-12808.97;;;-142.93;100.00
10840;BME280;5473;42.706;23.328;2023-03-03T03:28:39;-12808.97;;;-142.93;100.00
10840;BME280;5473;42.706;23.328;2023-03-03T03:31:07;-12808.97;;;-142.93;100.00
10840;BME280;5473;42.706;23.328;2023-03-03T03:33:34;-13059.81;;;-142.93;100.00
10840;BME280;5473;42.706;23.328;2023-03-03T03:36:03;-13059.81;;;-142.93;100.00
10840;BME280;5473;42.706;23.328;2023-03-03T03:38:31;-13059.81;;;-142.93;100.00
10840;BME280;5473;42.706;23.328;2023-03-03T03:40:58;-13310.63;;;-142.93;100.00
10840;BME280;5473;42.706;23.328;2023-03-03T03:43:25;-13310.63;;;-142.93;100.00
10840;BME280;5473;42.706;23.328;2023-03-03T03:45:52;-13310.63;;;-142.93;100.00
10840;BME280;5473;42.706;23.328;2023-03-03T03:48:19;-13561.44;;;-142.93;100.00
10840;BME280;5473;42.706;23.328;2023-03-03T03:50:46;-13812.22;;;-142.93;100.00
10840;BME280;5473;42.706;23.328;2023-03-03T03:53:15;-13812.22;;;-142.93;100.00
10840;BME280;5473;42.706;23.328;2023-03-03T03:55:42;-13812.22;;;-142.93;100.00
10840;BME280;5473;42.706;23.328;2023-03-03T03:58:11;-14062.97;;;-142.93;100.00
10840;BME280;5473;42.706;23.328;2023-03-03T04:00:39;-14062.97;;;-142.93;100.00
10840;BME280;5473;42.706;23.328;2023-03-03T04:03:06;-14062.97;;;-142.93;100.00
10840;BME280;5473;42.706;23.328;2023-03-03T04:05:33;-14062.97;;;-142.93;100.00
10840;BME280;5473;42.706;23.328;2023-03-03T04:08:00;-14062.97;;;-142.93;100.00
10840;BME280;5473;42.706;23.328;2023-03-03T04:10:28;-14313.72;;;-142.93;100.00
10840;BME280;5473;42.706;23.328;2023-03-03T04:12:56;-14313.72;;;-142.93;100.00
10840;BME280;5473;42.706;23.328;2023-03-03T04:15:23;-14313.72;;;-142.93;100.00
10840;BME280;5473;42.706;23.328;2023-03-03T04:17:49;-14313.72;;;-142.93;100.00
10840;BME280;5473;42.706;23.328;2023-03-03T04:20:16;-14313.72;;;-142.93;100.00
10840;BME280;5473;42.706;23.328;2023-03-03T04:22:43;-14313.72;;;-142.93;100.00
10840;BME280;5473;42.706;23.328;2023-03-03T04:25:11;-14564.44;;;-142.93;100.00
10840;BME280;5473;42.706;23.328;2023-03-03T04:27:41;-14564.44;;;-142.93;100.00
10840;BME280;5473;42.706;23.328;2023-03-03T04:30:09;-14564.44;;;-142.93;100.00
10840;BME280;5473;42.706;23.328;2023-03-03T04:32:36;-14564.44;;;-142.93;100.00
10840;BME280;5473;42.706;23.328;2023-03-03T04:35:03;-14564.44;;;-142.93;100.00
10840;BME280;5473;42.706;23.328;2023-03-03T04:37:30;-14564.44;;;-142.93;100.00
10840;BME280;5473;42.706;23.328;2023-03-03T04:39:57;-14564.44;;;-142.93;100.00
10840;BME280;5473;42.706;23.328;2023-03-03T04:42:25;-14564.44;;;-142.93;100.00
10840;BME280;5473;42.706;23.328;2023-03-03T04:44:54;-14564.44;;;-142.93;100.00
10840;BME280;5473;42.706;23.328;2023-03-03T04:47:21;-14564.44;;;-142.93;100.00
10840;BME280;5473;42.706;23.328;2023-03-03T04:49:48;-14564.44;;;-142.93;100.00
10840;BME280;5473;42.706;23.328;2023-03-03T04:52:15;-14564.44;;;-142.93;100.00
10840;BME280;5473;42.706;23.328;2023-03-03T04:54:41;-14564.44;;;-142.93;100.00
10840;BME280;5473;42.706;23.328;2023-03-03T04:57:08;-14564.44;;;-142.93;100.00
10840;BME280;5473;42.706;23.328;2023-03-03T04:59:35;-14565.91;;;-142.93;100.00
10840;BME280;5473;42.706;23.328;2023-03-03T05:02:03;-14565.91;;;-142.93;100.00
10840;BME280;5473;42.706;23.328;2023-03-03T05:04:30;-14565.91;;;-142.93;100.00
10840;BME280;5473;42.706;23.328;2023-03-03T05:06:57;-14565.91;;;-142.93;100.00
10840;BME280;5473;42.706;23.328;2023-03-03T05:09:24;-14565.91;;;-142.93;100.00
10840;BME280;5473;42.706;23.328;2023-03-03T05:11:50;-14565.91;;;-142.93;100.00
10840;BME280;5473;42.706;23.328;2023-03-03T05:14:18;-14565.91;;;-142.93;100.00
10840;BME280;5473;42.706;23.328;2023-03-03T05:16:44;-14565.91;;;-142.93;100.00
10840;BME280;5473;42.706;23.328;2023-03-03T05:19:13;-14565.91;;;-142.93;100.00
10840;BME280;5473;42.706;23.328;2023-03-03T05:21:40;-14565.91;;;-142.93;100.00
10840;BME280;5473;42.706;23.328;2023-03-03T05:24:07;-14565.91;;;-142.93;100.00
10840;BME280;5473;42.706;23.328;2023-03-03T05:26:34;-14565.91;;;-142.93;100.00
10840;BME280;5473;42.706;23.328;2023-03-03T05:29:01;-14565.91;;;-142.93;100.00
10840;BME280;5473;42.706;23.328;2023-03-03T05:31:27;-14565.91;;;-142.93;100.00
10840;BME280;5473;42.706;23.328;2023-03-03T05:33:54;-14565.91;;;-142.93;100.00
10840;BME280;5473;42.706;23.328;2023-03-03T05:36:22;-14565.91;;;-142.93;100.00
10840;BME280;5473;42.706;23.328;2023-03-03T05:38:49;-14565.91;;;-142.93;100.00
10840;BME280;5473;42.706;23.328;2023-03-03T05:41:16;-14565.91;;;-142.93;100.00
10840;BME280;5473;42.706;23.328;2023-03-03T05:43:42;-14565.91;;;-142.93;100.00
10840;BME280;5473;42.706;23.328;2023-03-03T05:46:09;-14565.91;;;-142.93;100.00
10840;BME280;5473;42.706;23.328;2023-03-03T05:48:36;-14565.91;;;-142.93;100.00
10840;BME280;5473;42.706;23.328;2023-03-03T05:51:03;-14565.91;;;-142.93;100.00
10840;BME280;5473;42.706;23.328;2023-03-03T05:53:31;-14565.91;;;-142.93;100.00
10840;BME280;5473;42.706;23.328;2023-03-03T05:55:58;-14565.91;;;-142.93;100.00
10840;BME280;5473;42.706;23.328;2023-03-03T05:58:25;-14565.91;;;-142.93;100.00
10840;BME280;5473;42.706;23.328;2023-03-03T06:00:52;-14565.91;;;-142.93;100.00
10840;BME280;5473;42.706;23.328;2023-03-03T06:03:18;-14565.91;;;-142.93;100.00
10840;BME280;5473;42.706;23.328;2023-03-03T06:05:45;-14565.91;;;-142.93;100.00
10840;BME280;5473;42.706;23.328;2023-03-03T06:08:12;-14565.91;;;-142.93;100.00
10840;BME280;5473;42.706;23.328;2023-03-03T06:10:40;-14565.91;;;-142.93;100.00
10840;BME280;5473;42.706;23.328;2023-03-03T06:13:07;-14565.91;;;-142.93;100.00
10840;BME280;5473;42.706;23.328;2023-03-03T06:15:34;-14565.91;;;-142.93;100.00
10840;BME280;5473;42.706;23.328;2023-03-03T06:18:00;-14565.91;;;-142.93;100.00
10840;BME280;5473;42.706;23.328;2023-03-03T06:20:27;-14565.91;;;-142.93;100.00
10840;BME280;5473;42.706;23.328;2023-03-03T06:22:54;-14565.91;;;-142.93;100.00
10840;BME280;5473;42.706;23.328;2023-03-03T06:25:21;-14565.91;;;-142.93;100.00
10840;BME280;5473;42.706;23.328;2023-03-03T06:27:49;-14564.44;;;-142.93;100.00
10840;BME280;5473;42.706;23.328;2023-03-03T06:30:16;-14564.44;;;-142.93;100.00
10840;BME280;5473;42.706;23.328;2023-03-03T06:32:43;-14564.44;;;-142.93;100.00
10840;BME280;5473;42.706;23.328;2023-03-03T06:35:10;-14564.44;;;-142.93;100.00
10840;BME280;5473;42.706;23.328;2023-03-03T06:37:36;-14564.44;;;-142.93;100.00
10840;BME280;5473;42.706;23.328;2023-03-03T06:40:06;-14564.44;;;-142.93;100.00
10840;BME280;5473;42.706;23.328;2023-03-03T06:42:33;-14564.44;;;-142.93;100.00
10840;BME280;5473;42.706;23.328;2023-03-03T06:45:01;-14564.44;;;-142.93;100.00
10840;BME280;5473;42.706;23.328;2023-03-03T06:47:27;-14564.44;;;-142.93;100.00
10840;BME280;5473;42.706;23.328;2023-03-03T06:49:54;-14564.44;;;-142.93;100.00
10840;BME280;5473;42.706;23.328;2023-03-03T06:52:22;-14564.44;;;-142.93;100.00
10840;BME280;5473;42.706;23.328;2023-03-03T06:54:49;-14564.44;;;-142.93;100.00
10840;BME280;5473;42.706;23.328;2023-03-03T06:57:24;-14564.44;;;-142.93;100.00
10840;BME280;5473;42.706;23.328;2023-03-03T06:59:52;-14564.44;;;-142.93;100.00
10840;BME280;5473;42.706;23.328;2023-03-03T07:02:21;-14565.91;;;-142.93;100.00
10840;BME280;5473;42.706;23.328;2023-03-03T07:04:48;-14564.44;;;-142.93;100.00
10840;BME280;5473;42.706;23.328;2023-03-03T07:07:17;-14565.91;;;-142.93;100.00
10840;BME280;5473;42.706;23.328;2023-03-03T07:09:47;-14564.44;;;-142.93;100.00
10840;BME280;5473;42.706;23.328;2023-03-03T07:12:15;-14564.44;;;-142.93;100.00
10840;BME280;5473;42.706;23.328;2023-03-03T07:14:47;-14564.44;;;-142.93;100.00
10840;BME280;5473;42.706;23.328;2023-03-03T07:17:17;-14564.44;;;-142.93;100.00
10840;BME280;5473;42.706;23.328;2023-03-03T07:19:46;-14564.44;;;-142.93;100.00
10840;BME280;5473;42.706;23.328;2023-03-03T07:22:16;-14564.44;;;-142.93;100.00
10840;BME280;5473;42.706;23.328;2023-03-03T07:24:45;-14564.44;;;-142.93;100.00
10840;BME280;5473;42.706;23.328;2023-03-03T07:27:18;-14313.72;;;-142.93;100.00
10840;BME280;5473;42.706;23.328;2023-03-03T07:29:49;-14313.72;;;-142.93;100.00
10840;BME280;5473;42.706;23.328;2023-03-03T07:32:27;-14313.72;;;-142.93;100.00
10840;BME280;5473;42.706;23.328;2023-03-03T07:35:01;-14062.97;;;-142.93;100.00
10840;BME280;5473;42.706;23.328;2023-03-03T07:37:30;-14062.97;;;-142.93;100.00
10840;BME280;5473;42.706;23.328;2023-03-03T07:39:59;-14062.97;;;-142.93;100.00
10840;BME280;5473;42.706;23.328;2023-03-03T07:42:28;-14062.97;;;-142.93;100.00
10840;BME280;5473;42.706;23.328;2023-03-03T07:45:01;-13812.22;;;-142.93;100.00
10840;BME280;5473;42.706;23.328;2023-03-03T07:47:29;-13812.22;;;-142.93;100.00
10840;BME280;5473;42.706;23.328;2023-03-03T07:49:58;-13561.44;;;-142.93;100.00
10840;BME280;5473;42.706;23.328;2023-03-03T07:52:30;-13812.22;;;-142.93;100.00
10840;BME280;5473;42.706;23.328;2023-03-03T07:55:19;-13812.22;;;-142.93;100.00
10840;BME280;5473;42.706;23.328;2023-03-03T07:57:50;-14062.97;;;-142.93;100.00
10840;BME280;5473;42.706;23.328;2023-03-03T08:03:37;-14313.72;;;-142.93;100.00
10840;BME280;5473;42.706;23.328;2023-03-03T08:06:19;-14313.72;;;-142.93;100.00
10840;BME280;5473;42.706;23.328;2023-03-03T08:08:56;-14313.72;;;-142.93;100.00
10840;BME280;5473;42.706;23.328;2023-03-03T08:11:27;-14313.72;;;-142.93;100.00
10840;BME280;5473;42.706;23.328;2023-03-03T08:13:54;-14313.72;;;-142.93;100.00
10840;BME280;5473;42.706;23.328;2023-03-03T08:16:29;-14313.72;;;-142.93;100.00
10840;BME280;5473;42.706;23.328;2023-03-03T08:19:03;-14313.72;;;-142.93;100.00
10840;BME280;5473;42.706;23.328;2023-03-03T08:21:32;-14062.97;;;-142.93;100.00
10840;BME280;5473;42.706;23.328;2023-03-03T08:24:02;-14062.97;;;-142.93;100.00
10840;BME280;5473;42.706;23.328;2023-03-03T08:26:29;-14062.97;;;-142.93;100.00
10840;BME280;5473;42.706;23.328;2023-03-03T08:28:55;-14062.97;;;-142.93;100.00
10840;BME280;5473;42.706;23.328;2023-03-03T08:31:22;-14062.97;;;-142.93;100.00
10840;BME280;5473;42.706;23.328;2023-03-03T08:33:49;-13812.22;;;-142.93;100.00
10840;BME280;5473;42.706;23.328;2023-03-03T08:36:16;-13561.44;;;-142.93;100.00
10840;BME280;5473;42.706;23.328;2023-03-03T08:38:42;-13561.44;;;-142.93;100.00
10840;BME280;5473;42.706;23.328;2023-03-03T08:41:11;-13561.44;;;-142.93;100.00
10840;BME280;5473;42.706;23.328;2023-03-03T08:43:37;-13812.22;;;-142.93;100.00
10840;BME280;5473;42.706;23.328;2023-03-03T08:46:05;-13561.44;;;-142.93;100.00
10840;BME280;5473;42.706;23.328;2023-03-03T08:48:34;-13561.44;;;-142.93;100.00
10840;BME280;5473;42.706;23.328;2023-03-03T08:51:01;-13812.22;;;-142.93;100.00
10840;BME280;5473;42.706;23.328;2023-03-03T08:53:28;-13561.44;;;-142.93;100.00
10840;BME280;5473;42.706;23.328;2023-03-03T08:55:57;-13561.44;;;-142.93;100.00
10840;BME280;5473;42.706;23.328;2023-03-03T08:58:26;-13561.44;;;-142.93;100.00
10840;BME280;5473;42.706;23.328;2023-03-03T09:00:52;-13561.44;;;-142.93;100.00
10840;BME280;5473;42.706;23.328;2023-03-03T09:03:19;-13561.44;;;-142.93;100.00
10840;BME280;5473;42.706;23.328;2023-03-03T09:05:46;-13310.63;;;-142.93;100.00
10840;BME280;5473;42.706;23.328;2023-03-03T09:08:13;-13310.63;;;-142.93;100.00
10840;BME280;5473;42.706;23.328;2023-03-03T09:10:39;-13310.63;;;-142.93;100.00
10840;BME280;5473;42.706;23.328;2023-03-03T09:13:11;-13310.63;;;-142.93;100.00
10840;BME280;5473;42.706;23.328;2023-03-03T09:15:41;-13310.63;;;-142.93;100.00
10840;BME280;5473;42.706;23.328;2023-03-03T09:18:14;-13059.81;;;-142.93;100.00
10840;BME280;5473;42.706;23.328;2023-03-03T09:20:43;-13059.81;;;-142.93;100.00
10840;BME280;5473;42.706;23.328;2023-03-03T09:23:27;-13059.81;;;-142.93;100.00
10840;BME280;5473;42.706;23.328;2023-03-03T09:25:56;-12808.97;;;-142.93;100.00
10840;BME280;5473;42.706;23.328;2023-03-03T09:28:24;-12558.09;;;-142.93;100.00
10840;BME280;5473;42.706;23.328;2023-03-03T09:30:56;-11805.41;;;-142.93;100.00
10840;BME280;5473;42.706;23.328;2023-03-03T09:33:28;-11805.41;;;-142.93;100.00
10840;BME280;5473;42.706;23.328;2023-03-03T09:36:03;-12056.34;;;-142.93;100.00
10840;BME280;5473;42.706;23.328;2023-03-03T09:38:43;-12056.34;;;-142.93;100.00
10840;BME280;5473;42.706;23.328;2023-03-03T09:41:25;-12056.34;;;-142.93;100.00
10840;BME280;5473;42.706;23.328;2023-03-03T09:44:06;-11554.47;;;-142.93;100.00
10840;BME280;5473;42.706;23.328;2023-03-03T09:46:53;-11554.47;;;-142.93;100.00
10840;BME280;5473;42.706;23.328;2023-03-03T09:49:30;-11554.47;;;-142.93;100.00
10840;BME280;5473;42.706;23.328;2023-03-03T09:52:19;-10299.50;;;-142.93;100.00
10840;BME280;5473;42.706;23.328;2023-03-03T09:55:00;-10048.47;;;-142.93;100.00
10840;BME280;5473;42.706;23.328;2023-03-03T09:57:39;-9546.28;;;-142.93;100.00
10840;BME280;5473;42.706;23.328;2023-03-03T10:00:28;-9546.28;;;-142.93;100.00
10840;BME280;5473;42.706;23.328;2023-03-03T10:03:10;-9044.06;;;-142.93;100.00
10840;BME280;5473;42.706;23.328;2023-03-03T10:05:45;-9044.06;;;-142.93;100.00
10840;BME280;5473;42.706;23.328;2023-03-03T10:08:36;-9295.19;;;-142.93;100.00
10840;BME280;5473;42.706;23.328;2023-03-03T10:11:14;-8290.56;;;-142.93;100.00
10840;BME280;5473;42.706;23.328;2023-03-03T10:14:03;-8039.34;;;-142.93;100.00
10840;BME280;5473;42.706;23.328;2023-03-03T10:16:52;-7034.31;;;-142.93;100.00
10840;BME280;5473;42.706;23.328;2023-03-03T10:19:36;-6531.69;;;-142.93;100.00
10840;BME280;5473;42.706;23.328;2023-03-03T10:22:16;-6029.00;;;-142.93;100.00
10840;BME280;5473;42.706;23.328;2023-03-03T10:25:00;-6531.69;;;-142.93;100.00
10840;BME280;5473;42.706;23.328;2023-03-03T10:27:56;-7034.31;;;-142.93;100.00
10840;BME280;5473;42.706;23.328;2023-03-03T10:30:35;-6783.03;;;-142.93;100.00
10840;BME280;5473;42.706;23.328;2023-03-03T10:33:11;-5274.78;;;-142.93;100.00
10840;BME280;5473;42.706;23.328;2023-03-03T10:36:03;-4017.41;;;-142.93;100.00
10840;BME280;5473;42.706;23.328;2023-03-03T10:38:44;-3765.88;;;-142.93;100.00
10840;BME280;5473;42.706;23.328;2023-03-03T10:41:33;-3514.31;;;-142.93;100.00
10840;BME280;5473;42.706;23.328;2023-03-03T10:44:34;-4268.91;;;-142.93;100.00
10840;BME280;5473;42.706;23.328;2023-03-03T10:50:05;-1249.44;;;-142.93;100.00
10840;BME280;5473;42.706;23.328;2023-03-03T10:52:43;-3011.16;;;-142.93;100.00
10840;BME280;5473;42.706;23.328;2023-03-03T10:55:20;-4771.91;;;-142.93;100.00
10840;BME280;5473;42.706;23.328;2023-03-03T10:58:02;-5023.34;;;-142.93;100.00
10840;BME280;5473;42.706;23.328;2023-03-03T11:00:37;-5023.34;;;-142.93;100.00
10840;BME280;5473;42.706;23.328;2023-03-03T11:03:32;-5023.34;;;-142.93;100.00
10840;BME280;5473;42.706;23.328;2023-03-03T11:06:10;-5274.78;;;-142.93;100.00
10840;BME280;5473;42.706;23.328;2023-03-03T11:08:45;-4520.41;;;-142.93;100.00
10840;BME280;5473;42.706;23.328;2023-03-03T11:11:19;-4017.41;;;-142.93;100.00
10840;BME280;5473;42.706;23.328;2023-03-03T11:13:53;-2507.91;;;-142.93;100.00
10840;BME280;5473;42.706;23.328;2023-03-03T11:16:34;-3262.75;;;-142.93;100.00
10840;BME280;5473;42.706;23.328;2023-03-03T11:19:20;-3011.16;;;-142.93;100.00
10840;BME280;5473;42.706;23.328;2023-03-03T11:21:59;-3262.75;;;-142.93;100.00
10840;BME280;5473;42.706;23.328;2023-03-03T11:24:42;-3765.88;;;-142.93;100.00
10840;BME280;5473;42.706;23.328;2023-03-03T11:27:43;-4520.41;;;-142.93;100.00
10840;BME280;5473;42.706;23.328;2023-03-03T11:30:30;-5526.22;;;-142.93;100.00
10840;BME280;5473;42.706;23.328;2023-03-03T11:33:02;-5274.78;;;-142.93;100.00
10840;BME280;5473;42.706;23.328;2023-03-03T11:35:38;-5526.22;;;-142.93;100.00
10840;BME280;5473;42.706;23.328;2023-03-03T11:38:29;-6531.69;;;-142.93;100.00
10840;BME280;5473;42.706;23.328;2023-03-03T11:41:05;-5777.63;;;-142.93;100.00
10840;BME280;5473;42.706;23.328;2023-03-03T11:43:38;-5274.78;;;-142.93;100.00
10840;BME280;5473;42.706;23.328;2023-03-03T11:46:10;-5777.63;;;-142.93;100.00
10840;BME280;5473;42.706;23.328;2023-03-03T11:48:43;-6280.34;;;-142.93;100.00
10840;BME280;5473;42.706;23.328;2023-03-03T11:51:14;-6531.69;;;-142.93;100.00
10840;BME280;5473;42.706;23.328;2023-03-03T11:53:56;-7034.31;;;-142.93;100.00
10840;BME280;5473;42.706;23.328;2023-03-03T11:56:27;-6531.69;;;-142.93;100.00
10840;BME280;5473;42.706;23.328;2023-03-03T11:59:09;-7536.88;;;-142.93;100.00
10840;BME280;5473;42.706;23.328;2023-03-03T12:01:44;-7285.59;;;-142.93;100.00
10840;BME280;5473;42.706;23.328;2023-03-03T12:04:17;-7536.88;;;-142.93;100.00
10840;BME280;5473;42.706;23.328;2023-03-03T12:06:55;-8039.34;;;-142.93;100.00
10840;BME280;5473;42.706;23.328;2023-03-03T12:09:36;-8541.75;;;-142.93;100.00
10840;BME280;5473;42.706;23.328;2023-03-03T12:12:11;-8792.91;;;-142.93;100.00
10840;BME280;5473;42.706;23.328;2023-03-03T12:14:53;-9295.19;;;-142.93;100.00
10840;BME280;5473;42.706;23.328;2023-03-03T12:17:38;-9546.28;;;-142.93;100.00
10840;BME280;5473;42.706;23.328;2023-03-03T12:20:15;-9797.38;;;-142.93;100.00
10840;BME280;5473;42.706;23.328;2023-03-03T12:22:52;-9797.38;;;-142.93;100.00
10840;BME280;5473;42.706;23.328;2023-03-03T12:25:30;-9546.28;;;-142.93;100.00
10840;BME280;5473;42.706;23.328;2023-03-03T12:28:04;-10048.47;;;-142.93;100.00
10840;BME280;5473;42.706;23.328;2023-03-03T12:31:00;-10801.56;;;-142.93;100.00
10840;BME280;5473;42.706;23.328;2023-03-03T12:33:49;-10801.56;;;-142.93;100.00
10840;BME280;5473;42.706;23.328;2023-03-03T12:36:29;-11052.53;;;-142.93;100.00
10840;BME280;5473;42.706;23.328;2023-03-03T12:39:01;-11554.47;;;-142.93;100.00
10840;BME280;5473;42.706;23.328;2023-03-03T12:41:35;-11554.47;;;-142.93;100.00
10840;BME280;5473;42.706;23.328;2023-03-03T12:44:14;-11805.41;;;-142.93;100.00
10840;BME280;5473;42.706;23.328;2023-03-03T12:46:48;-12056.34;;;-142.93;100.00
10840;BME280;5473;42.706;23.328;2023-03-03T12:49:17;-12558.09;;;-142.93;100.00
10840;BME280;5473;42.706;23.328;2023-03-03T12:52:00;-13059.81;;;-142.93;100.00
10840;BME280;5473;42.706;23.328;2023-03-03T12:54:48;-13561.44;;;-142.93;100.00